Okabena, Minnesota
Current Conditions -  °F | °C
As of 6:15 PM on Friday 21 Nov 2014 (Local Time) from KOTG Reporting Station
Clear Clear  
Wind Chill: 19°   Ceiling: Unl
Heat Index: 32°   Visibility: 10mi
Dew Point: 27°   Wind: 22mph
Humidity: 80%   Direction: 190°S
Pressure: 29.91"   Gusts: NA
Location:  43.74°N, 95.32°W
Report Text: KOTG 220015Z AUTO 19019KT 10SM CLR 00/M03 A2991 RMK AO1
Loading
Personal Weather Stations






























Interactive Weather Map New forecast layout! Learn more

10-Day Weather Forecast

Advertisements
Track Severe Weather on mobile